sensor_id;sensor_type;location;lat;lon;timestamp;pressure;altitude;pressure_sealevel;temperature;humidity
51229;BME280;37304;52.216;6.874;2023-03-23T00:04:09;99964.44;;;10.09;100.00
51229;BME280;37304;52.216;6.874;2023-03-23T00:09:13;99965.31;;;10.10;100.00
51229;BME280;37304;52.216;6.874;2023-03-23T00:14:15;99970.44;;;10.13;100.00
51229;BME280;37304;52.216;6.874;2023-03-23T00:19:15;99960.88;;;10.13;100.00
51229;BME280;37304;52.216;6.874;2023-03-23T00:24:17;99973.03;;;10.13;100.00
51229;BME280;37304;52.216;6.874;2023-03-23T00:29:20;99976.41;;;10.15;100.00
51229;BME280;37304;52.216;6.874;2023-03-23T00:34:22;99961.69;;;10.15;100.00
51229;BME280;37304;52.216;6.874;2023-03-23T00:39:26;99957.28;;;10.17;100.00
51229;BME280;37304;52.216;6.874;2023-03-23T00:44:29;99952.09;;;10.17;100.00
51229;BME280;37304;52.216;6.874;2023-03-23T00:49:30;99947.81;;;10.16;100.00
51229;BME280;37304;52.216;6.874;2023-03-23T00:54:34;99941.69;;;10.19;100.00
51229;BME280;37304;52.216;6.874;2023-03-23T00:59:36;99940.72;;;10.22;100.00
51229;BME280;37304;52.216;6.874;2023-03-23T01:04:40;99952.78;;;10.24;100.00
51229;BME280;37304;52.216;6.874;2023-03-23T01:09:40;99961.41;;;10.25;100.00
51229;BME280;37304;52.216;6.874;2023-03-23T01:14:44;99944.00;;;10.28;100.00
51229;BME280;37304;52.216;6.874;2023-03-23T01:19:45;99945.66;;;10.31;100.00
51229;BME280;37304;52.216;6.874;2023-03-23T01:24:45;99933.50;;;10.33;100.00
51229;BME280;37304;52.216;6.874;2023-03-23T01:29:46;99909.06;;;10.39;100.00
51229;BME280;37304;52.216;6.874;2023-03-23T01:34:46;99902.13;;;10.39;100.00
51229;BME280;37304;52.216;6.874;2023-03-23T01:39:46;99900.25;;;10.44;100.00
51229;BME280;37304;52.216;6.874;2023-03-23T01:49:47;99905.38;;;10.47;100.00
51229;BME280;37304;52.216;6.874;2023-03-23T01:54:49;99911.47;;;10.46;100.00
51229;BME280;37304;52.216;6.874;2023-03-23T01:59:52;99885.47;;;10.46;100.00
51229;BME280;37304;52.216;6.874;2023-03-23T02:04:57;99892.38;;;10.47;100.00
51229;BME280;37304;52.216;6.874;2023-03-23T02:09:59;99870.72;;;10.47;100.00
51229;BME280;37304;52.216;6.874;2023-03-23T02:15:00;99838.94;;;10.40;100.00
51229;BME280;37304;52.216;6.874;2023-03-23T02:20:13;99839.81;;;10.38;100.00
51229;BME280;37304;52.216;6.874;2023-03-23T02:25:29;99836.44;;;10.35;100.00
51229;BME280;37304;52.216;6.874;2023-03-23T02:30:58;99832.91;;;10.38;100.00
51229;BME280;37304;52.216;6.874;2023-03-23T02:41:32;99822.59;;;10.35;100.00
51229;BME280;37304;52.216;6.874;2023-03-23T02:46:35;99804.44;;;10.35;100.00
51229;BME280;37304;52.216;6.874;2023-03-23T02:51:37;99811.53;;;10.30;100.00
51229;BME280;37304;52.216;6.874;2023-03-23T02:56:39;99824.44;;;10.31;100.00
51229;BME280;37304;52.216;6.874;2023-03-23T03:12:15;99819.22;;;10.33;100.00
51229;BME280;37304;52.216;6.874;2023-03-23T03:17:26;99822.53;;;10.37;100.00
51229;BME280;37304;52.216;6.874;2023-03-23T03:22:30;99809.53;;;10.38;100.00
51229;BME280;37304;52.216;6.874;2023-03-23T03:27:31;99804.34;;;10.38;100.00
51229;BME280;37304;52.216;6.874;2023-03-23T03:32:39;99815.44;;;10.43;100.00
51229;BME280;37304;52.216;6.874;2023-03-23T03:37:42;99817.94;;;10.46;100.00
51229;BME280;37304;52.216;6.874;2023-03-23T03:42:43;99820.44;;;10.49;100.00
51229;BME280;37304;52.216;6.874;2023-03-23T03:47:45;99819.53;;;10.51;100.00
51229;BME280;37304;52.216;6.874;2023-03-23T03:52:45;99824.53;;;10.57;100.00
51229;BME280;37304;52.216;6.874;2023-03-23T03:57:45;99821.78;;;10.61;100.00
51229;BME280;37304;52.216;6.874;2023-03-23T04:02:49;99815.78;;;10.59;100.00
51229;BME280;37304;52.216;6.874;2023-03-23T04:07:56;99804.41;;;10.63;100.00
51229;BME280;37304;52.216;6.874;2023-03-23T04:13:02;99789.66;;;10.64;100.00
51229;BME280;37304;52.216;6.874;2023-03-23T04:18:04;99800.72;;;10.69;100.00
51229;BME280;37304;52.216;6.874;2023-03-23T04:23:05;99803.22;;;10.72;100.00
51229;BME280;37304;52.216;6.874;2023-03-23T04:28:05;99788.59;;;10.70;100.00
51229;BME280;37304;52.216;6.874;2023-03-23T04:33:07;99806.25;;;10.60;100.00
51229;BME280;37304;52.216;6.874;2023-03-23T04:38:08;99812.53;;;10.53;100.00
51229;BME280;37304;52.216;6.874;2023-03-23T04:43:09;99816.88;;;10.52;100.00
51229;BME280;37304;52.216;6.874;2023-03-23T04:48:12;99787.38;;;10.55;100.00
51229;BME280;37304;52.216;6.874;2023-03-23T04:53:14;99799.81;;;10.70;100.00
51229;BME280;37304;52.216;6.874;2023-03-23T04:58:16;99798.09;;;10.71;100.00
51229;BME280;37304;52.216;6.874;2023-03-23T05:03:18;99795.22;;;10.78;100.00
51229;BME280;37304;52.216;6.874;2023-03-23T05:08:20;99798.00;;;10.74;100.00
51229;BME280;37304;52.216;6.874;2023-03-23T05:13:20;99810.00;;;10.76;100.00
51229;BME280;37304;52.216;6.874;2023-03-23T05:18:21;99805.72;;;10.75;100.00
51229;BME280;37304;52.216;6.874;2023-03-23T05:23:21;99819.69;;;10.73;100.00
51229;BME280;37304;52.216;6.874;2023-03-23T05:28:24;99824.13;;;10.69;100.00
51229;BME280;37304;52.216;6.874;2023-03-23T05:33:25;99821.47;;;10.71;100.00
51229;BME280;37304;52.216;6.874;2023-03-23T05:38:25;99824.91;;;10.71;100.00
51229;BME280;37304;52.216;6.874;2023-03-23T05:43:26;99816.19;;;10.74;100.00
51229;BME280;37304;52.216;6.874;2023-03-23T05:48:27;99810.19;;;10.72;100.00
51229;BME280;37304;52.216;6.874;2023-03-23T05:53:28;99813.63;;;10.72;100.00
51229;BME280;37304;52.216;6.874;2023-03-23T05:58:29;99817.06;;;10.73;100.00
51229;BME280;37304;52.216;6.874;2023-03-23T06:03:30;99830.81;;;10.76;100.00
51229;BME280;37304;52.216;6.874;2023-03-23T06:08:31;99829.97;;;10.76;100.00
51229;BME280;37304;52.216;6.874;2023-03-23T06:13:31;99834.19;;;10.78;100.00
51229;BME280;37304;52.216;6.874;2023-03-23T06:18:32;99828.91;;;10.82;100.00
51229;BME280;37304;52.216;6.874;2023-03-23T06:23:37;99848.66;;;10.87;100.00
51229;BME280;37304;52.216;6.874;2023-03-23T06:28:37;99847.63;;;10.91;100.00
51229;BME280;37304;52.216;6.874;2023-03-23T06:33:38;99835.47;;;10.92;100.00
51229;BME280;37304;52.216;6.874;2023-03-23T06:38:39;99838.78;;;10.97;100.00
51229;BME280;37304;52.216;6.874;2023-03-23T06:43:39;99848.22;;;11.00;100.00
51229;BME280;37304;52.216;6.874;2023-03-23T06:48:40;99847.28;;;11.02;100.00
51229;BME280;37304;52.216;6.874;2023-03-23T06:53:41;99853.00;;;11.12;100.00
51229;BME280;37304;52.216;6.874;2023-03-23T06:58:41;99843.16;;;11.20;100.00
51229;BME280;37304;52.216;6.874;2023-03-23T07:03:42;99850.84;;;11.24;100.00
51229;BME280;37304;52.216;6.874;2023-03-23T07:08:42;99849.13;;;11.24;100.00
51229;BME280;37304;52.216;6.874;2023-03-23T07:13:43;99855.97;;;11.27;100.00
51229;BME280;37304;52.216;6.874;2023-03-23T07:18:44;99851.38;;;11.33;100.00
51229;BME280;37304;52.216;6.874;2023-03-23T07:23:44;99870.38;;;11.35;100.00
51229;BME280;37304;52.216;6.874;2023-03-23T07:28:46;99875.78;;;11.31;100.00
51229;BME280;37304;52.216;6.874;2023-03-23T07:33:47;99869.59;;;11.33;100.00
51229;BME280;37304;52.216;6.874;2023-03-23T07:38:47;99868.81;;;11.31;100.00
51229;BME280;37304;52.216;6.874;2023-03-23T07:43:48;99887.91;;;11.30;100.00
51229;BME280;37304;52.216;6.874;2023-03-23T07:48:48;99892.16;;;11.33;100.00
51229;BME280;37304;52.216;6.874;2023-03-23T07:53:49;99903.31;;;11.36;100.00
51229;BME280;37304;52.216;6.874;2023-03-23T07:58:50;99905.69;;;11.43;100.00
51229;BME280;37304;52.216;6.874;2023-03-23T08:03:51;99894.78;;;11.57;100.00
51229;BME280;37304;52.216;6.874;2023-03-23T08:08:59;99893.88;;;11.82;100.00
51229;BME280;37304;52.216;6.874;2023-03-23T08:14:00;99912.25;;;12.02;100.00
51229;BME280;37304;52.216;6.874;2023-03-23T08:19:01;99920.19;;;11.98;100.00
51229;BME280;37304;52.216;6.874;2023-03-23T08:24:02;99912.97;;;11.82;100.00
51229;BME280;37304;52.216;6.874;2023-03-23T08:29:03;99914.72;;;11.82;100.00
51229;BME280;37304;52.216;6.874;2023-03-23T08:34:04;99918.34;;;11.77;100.00
51229;BME280;37304;52.216;6.874;2023-03-23T08:39:05;99942.09;;;11.68;100.00
51229;BME280;37304;52.216;6.874;2023-03-23T08:44:06;99947.97;;;11.49;100.00
51229;BME280;37304;52.216;6.874;2023-03-23T08:49:08;99954.06;;;11.48;100.00
51229;BME280;37304;52.216;6.874;2023-03-23T08:54:18;99943.69;;;11.47;100.00
51229;BME280;37304;52.216;6.874;2023-03-23T08:59:20;99954.69;;;11.55;100.00
51229;BME280;37304;52.216;6.874;2023-03-23T09:04:21;99958.16;;;11.56;100.00
51229;BME280;37304;52.216;6.874;2023-03-23T09:09:22;99979.50;;;11.65;100.00
51229;BME280;37304;52.216;6.874;2023-03-23T09:14:22;99984.03;;;11.60;100.00
51229;BME280;37304;52.216;6.874;2023-03-23T09:19:23;99985.09;;;11.53;100.00
51229;BME280;37304;52.216;6.874;2023-03-23T09:24:23;99993.22;;;11.44;100.00
51229;BME280;37304;52.216;6.874;2023-03-23T09:29:25;99990.94;;;11.34;100.00
51229;BME280;37304;52.216;6.874;2023-03-23T09:34:26;99998.19;;;11.25;100.00
51229;BME280;37304;52.216;6.874;2023-03-23T09:39:29;100017.81;;;11.35;100.00
51229;BME280;37304;52.216;6.874;2023-03-23T09:44:52;100029.13;;;11.34;100.00
51229;BME280;37304;52.216;6.874;2023-03-23T09:55:07;100008.44;;;11.31;100.00
51229;BME280;37304;52.216;6.874;2023-03-23T10:05:27;100022.22;;;11.58;100.00
51229;BME280;37304;52.216;6.874;2023-03-23T10:11:19;100021.44;;;11.82;100.00
51229;BME280;37304;52.216;6.874;2023-03-23T10:15:58;100012.56;;;11.87;100.00
51229;BME280;37304;52.216;6.874;2023-03-23T10:21:00;100024.22;;;11.77;100.00
51229;BME280;37304;52.216;6.874;2023-03-23T10:26:23;100017.81;;;12.59;100.00
51229;BME280;37304;52.216;6.874;2023-03-23T10:31:35;100029.72;;;13.10;100.00
51229;BME280;37304;52.216;6.874;2023-03-23T10:36:50;100030.91;;;15.04;100.00
51229;BME280;37304;52.216;6.874;2023-03-23T10:41:51;100026.06;;;15.32;100.00
51229;BME280;37304;52.216;6.874;2023-03-23T10:52:01;100038.16;;;15.69;100.00
51229;BME280;37304;52.216;6.874;2023-03-23T10:57:35;100042.16;;;15.24;100.00
51229;BME280;37304;52.216;6.874;2023-03-23T11:02:43;100050.66;;;15.64;100.00
51229;BME280;37304;52.216;6.874;2023-03-23T11:07:57;100043.97;;;14.66;100.00
51229;BME280;37304;52.216;6.874;2023-03-23T11:12:58;100039.63;;;15.57;100.00
51229;BME280;37304;52.216;6.874;2023-03-23T11:18:04;100030.91;;;16.74;100.00
51229;BME280;37304;52.216;6.874;2023-03-23T11:23:27;100026.69;;;16.39;100.00
51229;BME280;37304;52.216;6.874;2023-03-23T11:28:31;100040.19;;;17.58;100.00
51229;BME280;37304;52.216;6.874;2023-03-23T11:33:57;100027.28;;;16.60;100.00
51229;BME280;37304;52.216;6.874;2023-03-23T11:39:00;100033.66;;;16.07;100.00
51229;BME280;37304;52.216;6.874;2023-03-23T11:44:10;100034.91;;;15.99;100.00
51229;BME280;37304;52.216;6.874;2023-03-23T11:49:28;100032.19;;;16.51;100.00
51229;BME280;37304;52.216;6.874;2023-03-23T11:54:34;100030.84;;;16.10;100.00
51229;BME280;37304;52.216;6.874;2023-03-23T11:59:35;100039.38;;;15.44;100.00
51229;BME280;37304;52.216;6.874;2023-03-23T12:05:05;100043.22;;;14.83;100.00
51229;BME280;37304;52.216;6.874;2023-03-23T12:26:16;100048.63;;;14.21;100.00
51229;BME280;37304;52.216;6.874;2023-03-23T12:31:24;100039.38;;;16.79;100.00
51229;BME280;37304;52.216;6.874;2023-03-23T12:47:04;100018.53;;;14.69;100.00
51229;BME280;37304;52.216;6.874;2023-03-23T12:52:14;100026.53;;;14.47;100.00
51229;BME280;37304;52.216;6.874;2023-03-23T12:57:34;100035.88;;;14.13;100.00
51229;BME280;37304;52.216;6.874;2023-03-23T13:03:01;100017.75;;;14.10;100.00
51229;BME280;37304;52.216;6.874;2023-03-23T13:08:18;100022.53;;;13.79;100.00
51229;BME280;37304;52.216;6.874;2023-03-23T13:13:23;100047.84;;;13.36;100.00
51229;BME280;37304;52.216;6.874;2023-03-23T13:23:45;100036.53;;;12.46;100.00
51229;BME280;37304;52.216;6.874;2023-03-23T13:28:55;100005.56;;;12.61;100.00
51229;BME280;37304;52.216;6.874;2023-03-23T13:34:00;100007.19;;;13.30;100.00
51229;BME280;37304;52.216;6.874;2023-03-23T13:39:16;100015.78;;;13.32;100.00
51229;BME280;37304;52.216;6.874;2023-03-23T13:44:23;100015.66;;;13.15;100.00
51229;BME280;37304;52.216;6.874;2023-03-23T13:49:24;100007.28;;;13.06;100.00
51229;BME280;37304;52.216;6.874;2023-03-23T13:54:38;100014.97;;;13.09;100.00
51229;BME280;37304;52.216;6.874;2023-03-23T13:59:49;100038.72;;;13.03;100.00
51229;BME280;37304;52.216;6.874;2023-03-23T14:04:50;100059.34;;;11.90;100.00
51229;BME280;37304;52.216;6.874;2023-03-23T14:09:51;100085.88;;;11.49;100.00
51229;BME280;37304;52.216;6.874;2023-03-23T14:14:56;100093.81;;;10.88;100.00
51229;BME280;37304;52.216;6.874;2023-03-23T14:20:01;100101.75;;;10.53;100.00
51229;BME280;37304;52.216;6.874;2023-03-23T14:25:16;100092.41;;;10.47;100.00
51229;BME280;37304;52.216;6.874;2023-03-23T14:30:23;100074.09;;;10.81;100.00
51229;BME280;37304;52.216;6.874;2023-03-23T14:35:31;100069.16;;;11.30;100.00
51229;BME280;37304;52.216;6.874;2023-03-23T14:40:33;100076.09;;;11.56;100.00
51229;BME280;37304;52.216;6.874;2023-03-23T14:45:35;100074.59;;;11.76;100.00
51229;BME280;37304;52.216;6.874;2023-03-23T14:50:39;100071.66;;;11.85;100.00
51229;BME280;37304;52.216;6.874;2023-03-23T14:55:42;100060.94;;;11.94;100.00
51229;BME280;37304;52.216;6.874;2023-03-23T15:00:52;100062.94;;;11.86;100.00
51229;BME280;37304;52.216;6.874;2023-03-23T15:06:14;100079.00;;;11.74;100.00
51229;BME280;37304;52.216;6.874;2023-03-23T15:16:26;100041.91;;;11.67;100.00
51229;BME280;37304;52.216;6.874;2023-03-23T15:21:30;100030.00;;;11.60;100.00
51229;BME280;37304;52.216;6.874;2023-03-23T15:26:34;100023.69;;;11.67;100.00
51229;BME280;37304;52.216;6.874;2023-03-23T15:31:47;100067.47;;;11.54;100.00
51229;BME280;37304;52.216;6.874;2023-03-23T15:36:58;100062.13;;;11.59;100.00
51229;BME280;37304;52.216;6.874;2023-03-23T15:41:59;100045.75;;;11.82;100.00
51229;BME280;37304;52.216;6.874;2023-03-23T15:47:10;100046.97;;;11.97;100.00
51229;BME280;37304;52.216;6.874;2023-03-23T15:52:13;100041.59;;;12.02;100.00
51229;BME280;37304;52.216;6.874;2023-03-23T15:57:14;100011.94;;;12.06;100.00
51229;BME280;37304;52.216;6.874;2023-03-23T16:02:20;100021.97;;;11.91;100.00
51229;BME280;37304;52.216;6.874;2023-03-23T16:07:22;99999.44;;;11.90;100.00
51229;BME280;37304;52.216;6.874;2023-03-23T16:12:23;99998.59;;;11.90;100.00
51229;BME280;37304;52.216;6.874;2023-03-23T16:17:25;100002.75;;;11.95;100.00
51229;BME280;37304;52.216;6.874;2023-03-23T16:22:25;100004.91;;;12.08;100.00
51229;BME280;37304;52.216;6.874;2023-03-23T16:27:26;100020.78;;;12.02;100.00
51229;BME280;37304;52.216;6.874;2023-03-23T16:32:26;100008.06;;;11.92;100.00
51229;BME280;37304;52.216;6.874;2023-03-23T16:37:26;100003.75;;;11.91;100.00
51229;BME280;37304;52.216;6.874;2023-03-23T16:42:32;100006.56;;;11.85;100.00
51229;BME280;37304;52.216;6.874;2023-03-23T16:47:32;100010.34;;;11.76;100.00
51229;BME280;37304;52.216;6.874;2023-03-23T16:52:33;100013.97;;;11.72;100.00
51229;BME280;37304;52.216;6.874;2023-03-23T16:57:33;100001.34;;;11.61;100.00
51229;BME280;37304;52.216;6.874;2023-03-23T17:02:39;100028.50;;;11.53;100.00
51229;BME280;37304;52.216;6.874;2023-03-23T17:07:40;100034.94;;;11.42;100.00
51229;BME280;37304;52.216;6.874;2023-03-23T17:12:41;100055.09;;;11.35;100.00
51229;BME280;37304;52.216;6.874;2023-03-23T17:17:43;100048.97;;;11.36;100.00
51229;BME280;37304;52.216;6.874;2023-03-23T17:22:44;100053.59;;;11.28;100.00
51229;BME280;37304;52.216;6.874;2023-03-23T17:27:44;100051.28;;;11.19;100.00
51229;BME280;37304;52.216;6.874;2023-03-23T17:32:45;100046.28;;;11.13;100.00
51229;BME280;37304;52.216;6.874;2023-03-23T17:37:46;100040.41;;;11.06;100.00
51229;BME280;37304;52.216;6.874;2023-03-23T17:42:47;100040.59;;;11.00;100.00
51229;BME280;37304;52.216;6.874;2023-03-23T17:47:47;100045.06;;;10.96;100.00
51229;BME280;37304;52.216;6.874;2023-03-23T17:52:48;100051.28;;;10.90;100.00
51229;BME280;37304;52.216;6.874;2023-03-23T17:57:48;100047.09;;;10.86;100.00
51229;BME280;37304;52.216;6.874;2023-03-23T18:02:49;100040.28;;;10.82;100.00
51229;BME280;37304;52.216;6.874;2023-03-23T18:07:49;100039.38;;;10.83;100.00
51229;BME280;37304;52.216;6.874;2023-03-23T18:12:50;100028.22;;;10.80;100.00
51229;BME280;37304;52.216;6.874;2023-03-23T18:17:50;100021.22;;;10.82;100.00
51229;BME280;37304;52.216;6.874;2023-03-23T18:22:51;100016.00;;;10.83;100.00
51229;BME280;37304;52.216;6.874;2023-03-23T18:27:51;100025.59;;;10.81;100.00
51229;BME280;37304;52.216;6.874;2023-03-23T18:32:52;100038.53;;;10.83;100.00
51229;BME280;37304;52.216;6.874;2023-03-23T18:37:55;100026.22;;;10.88;100.00
51229;BME280;37304;52.216;6.874;2023-03-23T18:42:55;100003.59;;;10.91;100.00
51229;BME280;37304;52.216;6.874;2023-03-23T18:47:55;100007.91;;;10.92;100.00
51229;BME280;37304;52.216;6.874;2023-03-23T18:52:56;99999.22;;;10.93;100.00
51229;BME280;37304;52.216;6.874;2023-03-23T18:57:56;99985.22;;;10.98;100.00
51229;BME280;37304;52.216;6.874;2023-03-23T19:03:00;99975.78;;;10.95;100.00
51229;BME280;37304;52.216;6.874;2023-03-23T19:08:01;99973.81;;;11.02;100.00
51229;BME280;37304;52.216;6.874;2023-03-23T19:13:02;99982.41;;;11.04;100.00
51229;BME280;37304;52.216;6.874;2023-03-23T19:18:03;99976.38;;;11.03;100.00
51229;BME280;37304;52.216;6.874;2023-03-23T19:23:04;99993.56;;;11.07;100.00
51229;BME280;37304;52.216;6.874;2023-03-23T19:28:07;99957.88;;;11.13;100.00
51229;BME280;37304;52.216;6.874;2023-03-23T19:33:08;99955.06;;;11.19;100.00
51229;BME280;37304;52.216;6.874;2023-03-23T19:38:21;99945.50;;;11.19;100.00
51229;BME280;37304;52.216;6.874;2023-03-23T19:43:23;99926.34;;;11.22;100.00
51229;BME280;37304;52.216;6.874;2023-03-23T19:48:34;99924.47;;;11.26;100.00
51229;BME280;37304;52.216;6.874;2023-03-23T19:53:42;99923.38;;;11.33;100.00
51229;BME280;37304;52.216;6.874;2023-03-23T19:58:44;99907.28;;;11.47;100.00
51229;BME280;37304;52.216;6.874;2023-03-23T20:03:57;99897.53;;;11.52;100.00
51229;BME280;37304;52.216;6.874;2023-03-23T20:09:25;99892.34;;;11.52;100.00
51229;BME280;37304;52.216;6.874;2023-03-23T20:14:35;99880.66;;;11.64;100.00
51229;BME280;37304;52.216;6.874;2023-03-23T20:19:37;99881.50;;;11.64;100.00
51229;BME280;37304;52.216;6.874;2023-03-23T20:24:37;99873.63;;;11.66;100.00
51229;BME280;37304;52.216;6.874;2023-03-23T20:29:41;99866.56;;;11.70;100.00
51229;BME280;37304;52.216;6.874;2023-03-23T20:34:41;99861.94;;;11.78;100.00
51229;BME280;37304;52.216;6.874;2023-03-23T20:39:43;99852.53;;;11.74;100.00
51229;BME280;37304;52.216;6.874;2023-03-23T20:44:45;99851.50;;;11.78;100.00
51229;BME280;37304;52.216;6.874;2023-03-23T20:49:45;99849.06;;;11.73;100.00
51229;BME280;37304;52.216;6.874;2023-03-23T20:54:47;99847.50;;;11.69;100.00
51229;BME280;37304;52.216;6.874;2023-03-23T20:59:49;99841.34;;;11.72;100.00
51229;BME280;37304;52.216;6.874;2023-03-23T21:04:50;99836.00;;;11.75;100.00
51229;BME280;37304;52.216;6.874;2023-03-23T21:09:51;99834.19;;;11.77;100.00
51229;BME280;37304;52.216;6.874;2023-03-23T21:14:52;99822.09;;;11.76;100.00
51229;BME280;37304;52.216;6.874;2023-03-23T21:20:06;99821.09;;;11.78;100.00
51229;BME280;37304;52.216;6.874;2023-03-23T21:25:06;99814.34;;;11.74;100.00
51229;BME280;37304;52.216;6.874;2023-03-23T21:30:09;99805.00;;;11.69;100.00
51229;BME280;37304;52.216;6.874;2023-03-23T21:35:10;99797.31;;;11.65;100.00
51229;BME280;37304;52.216;6.874;2023-03-23T21:40:12;99809.75;;;11.57;100.00
51229;BME280;37304;52.216;6.874;2023-03-23T21:45:15;99797.72;;;11.55;100.00
51229;BME280;37304;52.216;6.874;2023-03-23T21:50:17;99802.47;;;11.43;100.00
51229;BME280;37304;52.216;6.874;2023-03-23T21:55:21;99797.75;;;11.31;100.00
51229;BME280;37304;52.216;6.874;2023-03-23T22:00:22;99787.63;;;11.21;100.00
51229;BME280;37304;52.216;6.874;2023-03-23T22:05:22;99795.06;;;11.09;100.00
51229;BME280;37304;52.216;6.874;2023-03-23T22:10:23;99793.59;;;11.01;100.00
51229;BME280;37304;52.216;6.874;2023-03-23T22:15:29;99784.38;;;10.91;100.00
51229;BME280;37304;52.216;6.874;2023-03-23T22:20:29;99775.97;;;10.84;100.00
51229;BME280;37304;52.216;6.874;2023-03-23T22:25:30;99774.50;;;10.77;100.00
51229;BME280;37304;52.216;6.874;2023-03-23T22:30:33;99767.72;;;10.73;100.00
51229;BME280;37304;52.216;6.874;2023-03-23T22:35:34;99759.22;;;10.68;100.00
51229;BME280;37304;52.216;6.874;2023-03-23T22:40:35;99752.38;;;10.65;100.00
51229;BME280;37304;52.216;6.874;2023-03-23T22:45:35;99736.06;;;10.61;100.00
51229;BME280;37304;52.216;6.874;2023-03-23T22:50:36;99738.72;;;10.58;100.00
51229;BME280;37304;52.216;6.874;2023-03-23T22:55:40;99734.50;;;10.56;100.00
51229;BME280;37304;52.216;6.874;2023-03-23T23:00:46;99725.84;;;10.55;100.00
51229;BME280;37304;52.216;6.874;2023-03-23T23:05:48;99719.94;;;10.52;100.00
51229;BME280;37304;52.216;6.874;2023-03-23T23:10:51;99709.56;;;10.50;100.00
51229;BME280;37304;52.216;6.874;2023-03-23T23:15:54;99706.25;;;10.46;100.00
51229;BME280;37304;52.216;6.874;2023-03-23T23:20:57;99698.56;;;10.43;100.00
51229;BME280;37304;52.216;6.874;2023-03-23T23:25:59;99690.88;;;10.40;100.00
51229;BME280;37304;52.216;6.874;2023-03-23T23:30:59;99691.84;;;10.36;100.00
51229;BME280;37304;52.216;6.874;2023-03-23T23:36:00;99678.91;;;10.34;100.00
51229;BME280;37304;52.216;6.874;2023-03-23T23:41:01;99673.09;;;10.28;100.00
51229;BME280;37304;52.216;6.874;2023-03-23T23:46:02;99660.00;;;10.31;100.00
51229;BME280;37304;52.216;6.874;2023-03-23T23:51:02;99658.25;;;10.31;100.00
51229;BME280;37304;52.216;6.874;2023-03-23T23:56:03;99649.56;;;10.32;100.00
